sensor_id;sensor_type;location;lat;lon;timestamp;pressure;altitude;pressure_sealevel;temperature
13219;BMP180;6674;49.152;11.918;2022-10-22T00:00:34;95828.47;;;12.16
13219;BMP180;6674;49.152;11.918;2022-10-22T00:03:00;95821.97;;;12.14
13219;BMP180;6674;49.152;11.918;2022-10-22T00:05:28;95817.13;;;12.17
13219;BMP180;6674;49.152;11.918;2022-10-22T00:07:55;95819.69;;;12.17
13219;BMP180;6674;49.152;11.918;2022-10-22T00:10:22;95831.97;;;12.22
13219;BMP180;6674;49.152;11.918;2022-10-22T00:12:48;95824.66;;;12.19
13219;BMP180;6674;49.152;11.918;2022-10-22T00:15:15;95830.81;;;12.18
13219;BMP180;6674;49.152;11.918;2022-10-22T00:17:41;95829.38;;;12.22
13219;BMP180;6674;49.152;11.918;2022-10-22T00:20:09;95825.75;;;12.23
13219;BMP180;6674;49.152;11.918;2022-10-22T00:22:37;95819.03;;;12.22
13219;BMP180;6674;49.152;11.918;2022-10-22T00:25:04;95809.13;;;12.19
13219;BMP180;6674;49.152;11.918;2022-10-22T00:27:30;95814.94;;;12.26
13219;BMP180;6674;49.152;11.918;2022-10-22T00:29:57;95803.84;;;12.25
13219;BMP180;6674;49.152;11.918;2022-10-22T00:32:24;95810.22;;;12.23
13219;BMP180;6674;49.152;11.918;2022-10-22T00:34:50;95819.13;;;12.27
13219;BMP180;6674;49.152;11.918;2022-10-22T00:37:17;95808.56;;;12.28
13219;BMP180;6674;49.152;11.918;2022-10-22T00:39:45;95805.97;;;12.28
13219;BMP180;6674;49.152;11.918;2022-10-22T00:42:17;95796.94;;;12.31
13219;BMP180;6674;49.152;11.918;2022-10-22T00:45:00;95802.66;;;12.33
13219;BMP180;6674;49.152;11.918;2022-10-22T00:47:30;95798.53;;;12.32
13219;BMP180;6674;49.152;11.918;2022-10-22T00:49:57;95807.84;;;12.33
13219;BMP180;6674;49.152;11.918;2022-10-22T00:52:26;95804.03;;;12.35
13219;BMP180;6674;49.152;11.918;2022-10-22T00:54:54;95806.38;;;12.37
13219;BMP180;6674;49.152;11.918;2022-10-22T00:57:21;95800.19;;;12.38
13219;BMP180;6674;49.152;11.918;2022-10-22T00:59:48;95792.41;;;12.38
13219;BMP180;6674;49.152;11.918;2022-10-22T01:02:15;95797.03;;;12.36
13219;BMP180;6674;49.152;11.918;2022-10-22T01:04:42;95799.63;;;12.36
13219;BMP180;6674;49.152;11.918;2022-10-22T01:07:14;95804.81;;;12.36
13219;BMP180;6674;49.152;11.918;2022-10-22T01:09:46;95811.00;;;12.35
13219;BMP180;6674;49.152;11.918;2022-10-22T01:12:20;95811.00;;;12.35
13219;BMP180;6674;49.152;11.918;2022-10-22T01:14:59;95798.84;;;12.35
13219;BMP180;6674;49.152;11.918;2022-10-22T01:17:32;95807.16;;;12.37
13219;BMP180;6674;49.152;11.918;2022-10-22T01:20:08;95801.44;;;12.35
13219;BMP180;6674;49.152;11.918;2022-10-22T01:22:39;95802.13;;;12.31
13219;BMP180;6674;49.152;11.918;2022-10-22T01:25:12;95801.66;;;12.34
13219;BMP180;6674;49.152;11.918;2022-10-22T01:27:51;95810.22;;;12.34
13219;BMP180;6674;49.152;11.918;2022-10-22T01:30:23;95807.06;;;12.32
13219;BMP180;6674;49.152;11.918;2022-10-22T01:32:53;95809.88;;;12.31
13219;BMP180;6674;49.152;11.918;2022-10-22T01:35:24;95815.59;;;12.33
13219;BMP180;6674;49.152;11.918;2022-10-22T01:37:55;95805.63;;;12.36
13219;BMP180;6674;49.152;11.918;2022-10-22T01:40:22;95814.69;;;12.39
13219;BMP180;6674;49.152;11.918;2022-10-22T01:42:55;95809.53;;;12.39
13219;BMP180;6674;49.152;11.918;2022-10-22T01:45:24;95797.59;;;12.38
13219;BMP180;6674;49.152;11.918;2022-10-22T01:47:57;95815.25;;;12.41
13219;BMP180;6674;49.152;11.918;2022-10-22T01:50:49;95808.72;;;12.49
13219;BMP180;6674;49.152;11.918;2022-10-22T01:53:23;95816.03;;;12.52
13219;BMP180;6674;49.152;11.918;2022-10-22T01:56:01;95803.94;;;12.58
13219;BMP180;6674;49.152;11.918;2022-10-22T01:58:38;95802.81;;;12.65
13219;BMP180;6674;49.152;11.918;2022-10-22T02:01:14;95808.06;;;12.70
13219;BMP180;6674;49.152;11.918;2022-10-22T02:03:45;95788.47;;;12.74
13219;BMP180;6674;49.152;11.918;2022-10-22T02:06:18;95794.19;;;12.76
13219;BMP180;6674;49.152;11.918;2022-10-22T02:08:47;95774.03;;;12.78
13219;BMP180;6674;49.152;11.918;2022-10-22T02:11:15;95763.69;;;12.78
13219;BMP180;6674;49.152;11.918;2022-10-22T02:13:43;95767.06;;;12.79
13219;BMP180;6674;49.152;11.918;2022-10-22T02:16:15;95769.44;;;12.80
13219;BMP180;6674;49.152;11.918;2022-10-22T02:18:45;95760.66;;;12.81
13219;BMP180;6674;49.152;11.918;2022-10-22T02:21:13;95761.22;;;12.83
13219;BMP180;6674;49.152;11.918;2022-10-22T02:23:39;95760.44;;;12.83
13219;BMP180;6674;49.152;11.918;2022-10-22T02:26:13;95768.41;;;12.81
13219;BMP180;6674;49.152;11.918;2022-10-22T02:28:45;95777.19;;;12.80
13219;BMP180;6674;49.152;11.918;2022-10-22T02:31:19;95776.38;;;12.80
13219;BMP180;6674;49.152;11.918;2022-10-22T02:33:50;95771.22;;;12.80
13219;BMP180;6674;49.152;11.918;2022-10-22T02:36:17;95787.53;;;12.80
13219;BMP180;6674;49.152;11.918;2022-10-22T02:38:45;95786.75;;;12.80
13219;BMP180;6674;49.152;11.918;2022-10-22T02:41:12;95796.09;;;12.81
13219;BMP180;6674;49.152;11.918;2022-10-22T02:43:40;95811.84;;;12.79
13219;BMP180;6674;49.152;11.918;2022-10-22T02:46:08;95808.25;;;12.80
13219;BMP180;6674;49.152;11.918;2022-10-22T02:48:36;95806.13;;;12.77
13219;BMP180;6674;49.152;11.918;2022-10-22T02:51:03;95816.03;;;12.80
13219;BMP180;6674;49.152;11.918;2022-10-22T02:53:29;95812.19;;;12.83
13219;BMP180;6674;49.152;11.918;2022-10-22T02:55:56;95817.22;;;12.89
13219;BMP180;6674;49.152;11.918;2022-10-22T02:58:23;95827.91;;;12.93
13219;BMP180;6674;49.152;11.918;2022-10-22T03:00:50;95817.09;;;12.95
13219;BMP180;6674;49.152;11.918;2022-10-22T03:03:16;95807.84;;;12.99
13219;BMP180;6674;49.152;11.918;2022-10-22T03:05:44;95803.75;;;13.03
13219;BMP180;6674;49.152;11.918;2022-10-22T03:08:11;95788.53;;;13.07
13219;BMP180;6674;49.152;11.918;2022-10-22T03:10:38;95787.31;;;13.09
13219;BMP180;6674;49.152;11.918;2022-10-22T03:13:04;95796.41;;;13.12
13219;BMP180;6674;49.152;11.918;2022-10-22T03:15:31;95810.91;;;13.13
13219;BMP180;6674;49.152;11.918;2022-10-22T03:17:58;95806.28;;;13.15
13219;BMP180;6674;49.152;11.918;2022-10-22T03:20:24;95813.59;;;13.18
13219;BMP180;6674;49.152;11.918;2022-10-22T03:22:52;95805.28;;;13.16
13219;BMP180;6674;49.152;11.918;2022-10-22T03:25:21;95801.09;;;13.15
13219;BMP180;6674;49.152;11.918;2022-10-22T03:27:50;95798.97;;;13.12
13219;BMP180;6674;49.152;11.918;2022-10-22T03:30:17;95796.84;;;13.09
13219;BMP180;6674;49.152;11.918;2022-10-22T03:32:44;95797.91;;;13.08
13219;BMP180;6674;49.152;11.918;2022-10-22T03:35:11;95798.91;;;13.07
13219;BMP180;6674;49.152;11.918;2022-10-22T03:37:38;95783.81;;;13.04
13219;BMP180;6674;49.152;11.918;2022-10-22T03:40:09;95770.34;;;13.02
13219;BMP180;6674;49.152;11.918;2022-10-22T03:42:35;95765.63;;;12.99
13219;BMP180;6674;49.152;11.918;2022-10-22T03:45:03;95798.28;;;13.00
13219;BMP180;6674;49.152;11.918;2022-10-22T03:47:30;95819.44;;;12.97
13219;BMP180;6674;49.152;11.918;2022-10-22T03:49:56;95817.88;;;12.96
13219;BMP180;6674;49.152;11.918;2022-10-22T03:52:23;95824.06;;;12.95
13219;BMP180;6674;49.152;11.918;2022-10-22T03:54:49;95847.38;;;12.95
13219;BMP180;6674;49.152;11.918;2022-10-22T03:57:18;95844.25;;;12.93
13219;BMP180;6674;49.152;11.918;2022-10-22T03:59:45;95844.69;;;12.90
13219;BMP180;6674;49.152;11.918;2022-10-22T04:02:13;95853.25;;;12.91
13219;BMP180;6674;49.152;11.918;2022-10-22T04:04:39;95854.50;;;12.88
13219;BMP180;6674;49.152;11.918;2022-10-22T04:07:07;95861.00;;;12.91
13219;BMP180;6674;49.152;11.918;2022-10-22T04:09:34;95863.81;;;12.89
13219;BMP180;6674;49.152;11.918;2022-10-22T04:12:01;95868.53;;;12.92
13219;BMP180;6674;49.152;11.918;2022-10-22T04:14:31;95871.69;;;12.94
13219;BMP180;6674;49.152;11.918;2022-10-22T04:16:57;95875.03;;;12.94
13219;BMP180;6674;49.152;11.918;2022-10-22T04:19:24;95878.75;;;12.98
13219;BMP180;6674;49.152;11.918;2022-10-22T04:21:51;95874.69;;;13.02
13219;BMP180;6674;49.152;11.918;2022-10-22T04:24:17;95876.72;;;13.00
13219;BMP180;6674;49.152;11.918;2022-10-22T04:26:44;95881.91;;;13.00
13219;BMP180;6674;49.152;11.918;2022-10-22T04:29:11;95896.53;;;13.06
13219;BMP180;6674;49.152;11.918;2022-10-22T04:31:39;95891.56;;;13.05
13219;BMP180;6674;49.152;11.918;2022-10-22T04:34:05;95885.84;;;13.03
13219;BMP180;6674;49.152;11.918;2022-10-22T04:36:32;95880.91;;;13.01
13219;BMP180;6674;49.152;11.918;2022-10-22T04:39:00;95879.88;;;13.02
13219;BMP180;6674;49.152;11.918;2022-10-22T04:41:29;95877.03;;;13.04
13219;BMP180;6674;49.152;11.918;2022-10-22T04:43:57;95879.16;;;13.07
13219;BMP180;6674;49.152;11.918;2022-10-22T04:46:26;95883.34;;;13.08
13219;BMP180;6674;49.152;11.918;2022-10-22T04:48:54;95882.41;;;13.14
13219;BMP180;6674;49.152;11.918;2022-10-22T04:51:22;95905.47;;;13.15
13219;BMP180;6674;49.152;11.918;2022-10-22T04:53:49;95911.06;;;13.24
13219;BMP180;6674;49.152;11.918;2022-10-22T04:56:18;95922.00;;;13.26
13219;BMP180;6674;49.152;11.918;2022-10-22T04:58:45;95922.63;;;13.33
13219;BMP180;6674;49.152;11.918;2022-10-22T05:01:15;95924.78;;;13.36
13219;BMP180;6674;49.152;11.918;2022-10-22T05:03:43;95914.63;;;13.34
13219;BMP180;6674;49.152;11.918;2022-10-22T05:06:12;95903.09;;;13.41
13219;BMP180;6674;49.152;11.918;2022-10-22T05:08:39;95882.13;;;13.43
13219;BMP180;6674;49.152;11.918;2022-10-22T05:11:13;95890.78;;;13.48
13219;BMP180;6674;49.152;11.918;2022-10-22T05:13:40;95908.22;;;13.53
13219;BMP180;6674;49.152;11.918;2022-10-22T05:16:06;95908.47;;;13.51
13219;BMP180;6674;49.152;11.918;2022-10-22T05:18:34;95922.50;;;13.55
13219;BMP180;6674;49.152;11.918;2022-10-22T05:21:02;95923.28;;;13.56
13219;BMP180;6674;49.152;11.918;2022-10-22T05:23:30;95918.91;;;13.56
13219;BMP180;6674;49.152;11.918;2022-10-22T05:26:00;95932.66;;;13.57
13219;BMP180;6674;49.152;11.918;2022-10-22T05:28:27;95928.16;;;13.52
13219;BMP180;6674;49.152;11.918;2022-10-22T05:30:55;95925.81;;;13.51
13219;BMP180;6674;49.152;11.918;2022-10-22T05:33:22;95940.56;;;13.50
13219;BMP180;6674;49.152;11.918;2022-10-22T05:35:49;95929.88;;;13.47
13219;BMP180;6674;49.152;11.918;2022-10-22T05:38:16;95928.84;;;13.48
13219;BMP180;6674;49.152;11.918;2022-10-22T05:40:44;95936.63;;;13.48
13219;BMP180;6674;49.152;11.918;2022-10-22T05:43:11;95943.06;;;13.45
13219;BMP180;6674;49.152;11.918;2022-10-22T05:45:39;95960.44;;;13.45
13219;BMP180;6674;49.152;11.918;2022-10-22T05:48:06;95964.72;;;13.39
13219;BMP180;6674;49.152;11.918;2022-10-22T05:50:34;95965.66;;;13.34
13219;BMP180;6674;49.152;11.918;2022-10-22T05:53:01;95958.91;;;13.33
13219;BMP180;6674;49.152;11.918;2022-10-22T05:55:28;95950.34;;;13.32
13219;BMP180;6674;49.152;11.918;2022-10-22T05:57:56;95941.53;;;13.33
13219;BMP180;6674;49.152;11.918;2022-10-22T06:00:22;95938.19;;;13.33
13219;BMP180;6674;49.152;11.918;2022-10-22T06:02:50;95934.59;;;13.34
13219;BMP180;6674;49.152;11.918;2022-10-22T06:05:16;95944.94;;;13.34
13219;BMP180;6674;49.152;11.918;2022-10-22T06:07:43;95948.78;;;13.31
13219;BMP180;6674;49.152;11.918;2022-10-22T06:10:13;95948.78;;;13.31
13219;BMP180;6674;49.152;11.918;2022-10-22T06:12:40;95950.59;;;13.31
13219;BMP180;6674;49.152;11.918;2022-10-22T06:15:10;95966.13;;;13.31
13219;BMP180;6674;49.152;11.918;2022-10-22T06:17:37;95979.31;;;13.29
13219;BMP180;6674;49.152;11.918;2022-10-22T06:20:04;95987.31;;;13.28
13219;BMP180;6674;49.152;11.918;2022-10-22T06:22:31;95982.22;;;13.33
13219;BMP180;6674;49.152;11.918;2022-10-22T06:24:58;95970.50;;;13.30
13219;BMP180;6674;49.152;11.918;2022-10-22T06:27:25;95964.41;;;13.36
13219;BMP180;6674;49.152;11.918;2022-10-22T06:29:51;95965.19;;;13.36
13219;BMP180;6674;49.152;11.918;2022-10-22T06:32:19;95962.38;;;13.38
13219;BMP180;6674;49.152;11.918;2022-10-22T06:34:46;95968.66;;;13.42
13219;BMP180;6674;49.152;11.918;2022-10-22T06:37:15;95966.84;;;13.42
13219;BMP180;6674;49.152;11.918;2022-10-22T06:39:41;95970.00;;;13.44
13219;BMP180;6674;49.152;11.918;2022-10-22T06:42:08;95964.13;;;13.49
13219;BMP180;6674;49.152;11.918;2022-10-22T06:44:35;95973.25;;;13.51
13219;BMP180;6674;49.152;11.918;2022-10-22T06:47:01;95978.75;;;13.55
13219;BMP180;6674;49.152;11.918;2022-10-22T06:49:29;95990.91;;;13.54
13219;BMP180;6674;49.152;11.918;2022-10-22T06:51:56;95996.16;;;13.59
13219;BMP180;6674;49.152;11.918;2022-10-22T06:54:23;95998.53;;;13.61
13219;BMP180;6674;49.152;11.918;2022-10-22T06:56:50;96000.44;;;13.65
13219;BMP180;6674;49.152;11.918;2022-10-22T06:59:16;96002.03;;;13.66
13219;BMP180;6674;49.152;11.918;2022-10-22T07:01:43;96002.81;;;13.67
13219;BMP180;6674;49.152;11.918;2022-10-22T07:04:10;96006.72;;;13.69
13219;BMP180;6674;49.152;11.918;2022-10-22T07:06:38;96011.91;;;13.69
13219;BMP180;6674;49.152;11.918;2022-10-22T07:09:05;96010.66;;;13.72
13219;BMP180;6674;49.152;11.918;2022-10-22T07:11:37;96013.56;;;13.75
13219;BMP180;6674;49.152;11.918;2022-10-22T07:14:04;96022.94;;;13.76
13219;BMP180;6674;49.152;11.918;2022-10-22T07:16:31;96034.09;;;13.77
13219;BMP180;6674;49.152;11.918;2022-10-22T07:18:58;96042.72;;;13.82
13219;BMP180;6674;49.152;11.918;2022-10-22T07:21:24;96042.72;;;13.82
13219;BMP180;6674;49.152;11.918;2022-10-22T07:23:53;96047.91;;;13.82
13219;BMP180;6674;49.152;11.918;2022-10-22T07:26:20;96054.69;;;13.83
13219;BMP180;6674;49.152;11.918;2022-10-22T07:28:47;96053.91;;;13.82
13219;BMP180;6674;49.152;11.918;2022-10-22T07:31:15;96055.47;;;13.83
13219;BMP180;6674;49.152;11.918;2022-10-22T07:33:41;96064.59;;;13.86
13219;BMP180;6674;49.152;11.918;2022-10-22T07:36:10;96056.50;;;13.82
13219;BMP180;6674;49.152;11.918;2022-10-22T07:38:41;96069.22;;;13.84
13219;BMP180;6674;49.152;11.918;2022-10-22T07:41:10;96072.38;;;13.86
13219;BMP180;6674;49.152;11.918;2022-10-22T07:43:36;96077.78;;;13.84
13219;BMP180;6674;49.152;11.918;2022-10-22T07:46:03;96072.59;;;13.84
13219;BMP180;6674;49.152;11.918;2022-10-22T07:48:30;96077.78;;;13.84
13219;BMP180;6674;49.152;11.918;2022-10-22T07:50:56;96079.69;;;13.89
13219;BMP180;6674;49.152;11.918;2022-10-22T07:53:23;96089.03;;;13.90
13219;BMP180;6674;49.152;11.918;2022-10-22T07:55:50;96080.47;;;13.89
13219;BMP180;6674;49.152;11.918;2022-10-22T07:58:20;96091.38;;;13.91
13219;BMP180;6674;49.152;11.918;2022-10-22T08:00:47;96099.50;;;13.95
13219;BMP180;6674;49.152;11.918;2022-10-22T08:03:15;96090.25;;;13.99
13219;BMP180;6674;49.152;11.918;2022-10-22T08:05:42;96092.59;;;14.00
13219;BMP180;6674;49.152;11.918;2022-10-22T08:08:10;96087.75;;;14.04
13219;BMP180;6674;49.152;11.918;2022-10-22T08:10:37;96092.50;;;14.07
13219;BMP180;6674;49.152;11.918;2022-10-22T08:13:04;96094.28;;;14.06
13219;BMP180;6674;49.152;11.918;2022-10-22T08:15:33;96103.31;;;14.04
13219;BMP180;6674;49.152;11.918;2022-10-22T08:18:00;96102.97;;;14.00
13219;BMP180;6674;49.152;11.918;2022-10-22T08:20:26;96117.72;;;14.00
13219;BMP180;6674;49.152;11.918;2022-10-22T08:22:53;96111.91;;;13.93
13219;BMP180;6674;49.152;11.918;2022-10-22T08:25:20;96117.19;;;13.98
13219;BMP180;6674;49.152;11.918;2022-10-22T08:27:46;96121.03;;;13.95
13219;BMP180;6674;49.152;11.918;2022-10-22T08:30:13;96112.38;;;13.90
13219;BMP180;6674;49.152;11.918;2022-10-22T08:32:42;96112.28;;;13.85
13219;BMP180;6674;49.152;11.918;2022-10-22T08:35:08;96112.50;;;13.83
13219;BMP180;6674;49.152;11.918;2022-10-22T08:37:35;96123.91;;;13.82
13219;BMP180;6674;49.152;11.918;2022-10-22T08:40:02;96128.09;;;13.72
13219;BMP180;6674;49.152;11.918;2022-10-22T08:42:43;96130.59;;;13.67
13219;BMP180;6674;49.152;11.918;2022-10-22T08:45:12;96139.50;;;13.71
13219;BMP180;6674;49.152;11.918;2022-10-22T08:47:59;96140.84;;;13.62
13219;BMP180;6674;49.152;11.918;2022-10-22T08:50:33;96141.66;;;13.63
13219;BMP180;6674;49.152;11.918;2022-10-22T08:53:03;96138.59;;;13.66
13219;BMP180;6674;49.152;11.918;2022-10-22T08:55:32;96141.50;;;13.69
13219;BMP180;6674;49.152;11.918;2022-10-22T08:58:08;96139.50;;;13.71
13219;BMP180;6674;49.152;11.918;2022-10-22T09:00:44;96122.34;;;13.70
13219;BMP180;6674;49.152;11.918;2022-10-22T09:03:29;96121.13;;;13.73
13219;BMP180;6674;49.152;11.918;2022-10-22T09:06:04;96122.88;;;13.83
13219;BMP180;6674;49.152;11.918;2022-10-22T09:08:35;96129.78;;;13.78
13219;BMP180;6674;49.152;11.918;2022-10-22T09:11:06;96128.91;;;13.73
13219;BMP180;6674;49.152;11.918;2022-10-22T09:13:39;96126.41;;;13.78
13219;BMP180;6674;49.152;11.918;2022-10-22T09:16:13;96134.41;;;13.76
13219;BMP180;6674;49.152;11.918;2022-10-22T09:18:49;96140.47;;;13.81
13219;BMP180;6674;49.152;11.918;2022-10-22T09:21:24;96148.34;;;13.86
13219;BMP180;6674;49.152;11.918;2022-10-22T09:24:08;96151.25;;;13.90
13219;BMP180;6674;49.152;11.918;2022-10-22T09:26:39;96151.16;;;13.85
13219;BMP180;6674;49.152;11.918;2022-10-22T09:29:08;96167.41;;;13.92
13219;BMP180;6674;49.152;11.918;2022-10-22T09:31:38;96160.75;;;13.84
13219;BMP180;6674;49.152;11.918;2022-10-22T09:34:05;96159.03;;;13.90
13219;BMP180;6674;49.152;11.918;2022-10-22T09:36:33;96169.50;;;13.95
13219;BMP180;6674;49.152;11.918;2022-10-22T09:39:00;96168.94;;;13.93
13219;BMP180;6674;49.152;11.918;2022-10-22T09:41:29;96176.84;;;13.98
13219;BMP180;6674;49.152;11.918;2022-10-22T09:43:56;96181.69;;;13.94
13219;BMP180;6674;49.152;11.918;2022-10-22T09:46:26;96177.84;;;14.08
13219;BMP180;6674;49.152;11.918;2022-10-22T09:48:59;96178.19;;;14.12
13219;BMP180;6674;49.152;11.918;2022-10-22T09:51:40;96189.19;;;14.19
13219;BMP180;6674;49.152;11.918;2022-10-22T09:54:16;96174.19;;;14.21
13219;BMP180;6674;49.152;11.918;2022-10-22T09:56:50;96182.16;;;14.30
13219;BMP180;6674;49.152;11.918;2022-10-22T09:59:23;96173.44;;;14.36
13219;BMP180;6674;49.152;11.918;2022-10-22T10:01:56;96168.34;;;14.41
13219;BMP180;6674;49.152;11.918;2022-10-22T10:04:23;96166.75;;;14.40
13219;BMP180;6674;49.152;11.918;2022-10-22T10:06:54;96173.47;;;14.53
13219;BMP180;6674;49.152;11.918;2022-10-22T10:09:23;96170.81;;;14.64
13219;BMP180;6674;49.152;11.918;2022-10-22T10:11:57;96162.09;;;14.70
13219;BMP180;6674;49.152;11.918;2022-10-22T10:14:31;96161.13;;;14.76
13219;BMP180;6674;49.152;11.918;2022-10-22T10:17:07;96172.94;;;14.83
13219;BMP180;6674;49.152;11.918;2022-10-22T10:19:48;96171.50;;;14.92
13219;BMP180;6674;49.152;11.918;2022-10-22T10:22:27;96173.78;;;15.05
13219;BMP180;6674;49.152;11.918;2022-10-22T10:25:10;96171.03;;;15.28
13219;BMP180;6674;49.152;11.918;2022-10-22T10:27:42;96158.34;;;15.31
13219;BMP180;6674;49.152;11.918;2022-10-22T10:30:12;96152.91;;;15.33
13219;BMP180;6674;49.152;11.918;2022-10-22T10:35:39;96158.91;;;15.33
13219;BMP180;6674;49.152;11.918;2022-10-22T10:38:20;96158.75;;;15.40
13219;BMP180;6674;49.152;11.918;2022-10-22T10:40:51;96154.75;;;15.53
13219;BMP180;6674;49.152;11.918;2022-10-22T10:43:29;96144.72;;;15.62
13219;BMP180;6674;49.152;11.918;2022-10-22T10:46:03;96151.22;;;15.81
13219;BMP180;6674;49.152;11.918;2022-10-22T10:48:45;96142.25;;;15.72
13219;BMP180;6674;49.152;11.918;2022-10-22T10:51:26;96135.72;;;15.91
13219;BMP180;6674;49.152;11.918;2022-10-22T10:54:06;96138.00;;;15.87
13219;BMP180;6674;49.152;11.918;2022-10-22T10:56:38;96143.69;;;15.84
13219;BMP180;6674;49.152;11.918;2022-10-22T10:59:14;96144.44;;;16.06
13219;BMP180;6674;49.152;11.918;2022-10-22T11:01:52;96143.63;;;16.22
13219;BMP180;6674;49.152;11.918;2022-10-22T11:04:40;96136.97;;;16.31
13219;BMP180;6674;49.152;11.918;2022-10-22T11:07:14;96136.34;;;16.50
13219;BMP180;6674;49.152;11.918;2022-10-22T11:09:51;96135.44;;;16.66
13219;BMP180;6674;49.152;11.918;2022-10-22T11:12:22;96130.63;;;16.53
13219;BMP180;6674;49.152;11.918;2022-10-22T11:14:57;96134.78;;;16.49
13219;BMP180;6674;49.152;11.918;2022-10-22T11:17:29;96127.31;;;16.31
13219;BMP180;6674;49.152;11.918;2022-10-22T11:20:02;96137.91;;;16.51
13219;BMP180;6674;49.152;11.918;2022-10-22T11:22:33;96141.25;;;16.73
13219;BMP180;6674;49.152;11.918;2022-10-22T11:25:11;96123.13;;;16.87
13219;BMP180;6674;49.152;11.918;2022-10-22T11:27:44;96124.44;;;16.95
13219;BMP180;6674;49.152;11.918;2022-10-22T11:30:16;96133.63;;;17.02
13219;BMP180;6674;49.152;11.918;2022-10-22T11:32:46;96127.09;;;17.00
13219;BMP180;6674;49.152;11.918;2022-10-22T11:35:15;96135.78;;;17.10
13219;BMP180;6674;49.152;11.918;2022-10-22T11:37:44;96133.19;;;17.10
13219;BMP180;6674;49.152;11.918;2022-10-22T11:40:17;96133.03;;;16.90
13219;BMP180;6674;49.152;11.918;2022-10-22T11:42:48;96123.94;;;16.93
13219;BMP180;6674;49.152;11.918;2022-10-22T11:45:29;96125.84;;;17.07
13219;BMP180;6674;49.152;11.918;2022-10-22T11:47:58;96127.44;;;17.08
13219;BMP180;6674;49.152;11.918;2022-10-22T11:50:44;96123.31;;;17.17
13219;BMP180;6674;49.152;11.918;2022-10-22T11:53:17;96117.56;;;17.15
13219;BMP180;6674;49.152;11.918;2022-10-22T11:55:47;96120.25;;;17.25
13219;BMP180;6674;49.152;11.918;2022-10-22T11:58:32;96125.84;;;17.07
13219;BMP180;6674;49.152;11.918;2022-10-22T12:01:27;96120.88;;;17.06
13219;BMP180;6674;49.152;11.918;2022-10-22T12:04:18;96121.16;;;17.09
13219;BMP180;6674;49.152;11.918;2022-10-22T12:06:59;96116.38;;;17.32
13219;BMP180;6674;49.152;11.918;2022-10-22T12:09:28;96110.72;;;17.45
13219;BMP180;6674;49.152;11.918;2022-10-22T12:12:08;96117.81;;;17.55
13219;BMP180;6674;49.152;11.918;2022-10-22T12:14:49;96113.75;;;17.78
13219;BMP180;6674;49.152;11.918;2022-10-22T12:17:16;96116.81;;;17.66
13219;BMP180;6674;49.152;11.918;2022-10-22T12:19:46;96119.94;;;17.68
13219;BMP180;6674;49.152;11.918;2022-10-22T12:22:16;96116.72;;;17.46
13219;BMP180;6674;49.152;11.918;2022-10-22T12:24:47;96121.91;;;17.36
13219;BMP180;6674;49.152;11.918;2022-10-22T12:27:18;96130.28;;;17.48
13219;BMP180;6674;49.152;11.918;2022-10-22T12:29:45;96112.06;;;17.53
13219;BMP180;6674;49.152;11.918;2022-10-22T12:32:14;96107.31;;;17.45
13219;BMP180;6674;49.152;11.918;2022-10-22T12:34:45;96113.19;;;17.72
13219;BMP180;6674;49.152;11.918;2022-10-22T12:37:13;96112.19;;;17.92
13219;BMP180;6674;49.152;11.918;2022-10-22T12:39:39;96095.34;;;18.15
13219;BMP180;6674;49.152;11.918;2022-10-22T12:42:07;96082.03;;;18.21
13219;BMP180;6674;49.152;11.918;2022-10-22T12:44:39;96094.31;;;18.25
13219;BMP180;6674;49.152;11.918;2022-10-22T12:47:06;96097.19;;;18.39
13219;BMP180;6674;49.152;11.918;2022-10-22T12:49:36;96089.63;;;18.57
13219;BMP180;6674;49.152;11.918;2022-10-22T12:52:05;96096.69;;;18.52
13219;BMP180;6674;49.152;11.918;2022-10-22T12:54:33;96095.09;;;18.36
13219;BMP180;6674;49.152;11.918;2022-10-22T12:57:01;96094.31;;;18.20
13219;BMP180;6674;49.152;11.918;2022-10-22T12:59:29;96095.28;;;18.05
13219;BMP180;6674;49.152;11.918;2022-10-22T13:02:00;96096.81;;;17.96
13219;BMP180;6674;49.152;11.918;2022-10-22T13:04:32;96095.00;;;17.91
13219;BMP180;6674;49.152;11.918;2022-10-22T13:07:16;96100.22;;;17.91
13219;BMP180;6674;49.152;11.918;2022-10-22T13:09:44;96094.25;;;18.06
13219;BMP180;6674;49.152;11.918;2022-10-22T13:12:11;96095.00;;;18.01
13219;BMP180;6674;49.152;11.918;2022-10-22T13:14:41;96088.22;;;18.05
13219;BMP180;6674;49.152;11.918;2022-10-22T13:17:12;96102.84;;;18.01
13219;BMP180;6674;49.152;11.918;2022-10-22T13:19:42;96100.25;;;18.01
13219;BMP180;6674;49.152;11.918;2022-10-22T13:22:27;96093.97;;;18.07
13219;BMP180;6674;49.152;11.918;2022-10-22T13:24:55;96091.34;;;18.02
13219;BMP180;6674;49.152;11.918;2022-10-22T13:27:23;96103.09;;;17.95
13219;BMP180;6674;49.152;11.918;2022-10-22T13:29:50;96089.53;;;17.98
13219;BMP180;6674;49.152;11.918;2022-10-22T13:32:27;96089.84;;;18.21
13219;BMP180;6674;49.152;11.918;2022-10-22T13:34:55;96092.50;;;18.41
13219;BMP180;6674;49.152;11.918;2022-10-22T13:37:23;96102.44;;;18.58
13219;BMP180;6674;49.152;11.918;2022-10-22T13:39:49;96099.81;;;18.73
13219;BMP180;6674;49.152;11.918;2022-10-22T13:42:16;96086.47;;;18.95
13219;BMP180;6674;49.152;11.918;2022-10-22T13:44:43;96085.19;;;19.07
13219;BMP180;6674;49.152;11.918;2022-10-22T13:47:21;96093.75;;;19.32
13219;BMP180;6674;49.152;11.918;2022-10-22T13:49:51;96088.28;;;19.19
13219;BMP180;6674;49.152;11.918;2022-10-22T13:52:27;96083.03;;;19.19
13219;BMP180;6674;49.152;11.918;2022-10-22T13:54:54;96098.19;;;19.32
13219;BMP180;6674;49.152;11.918;2022-10-22T13:57:20;96091.69;;;19.24
13219;BMP180;6674;49.152;11.918;2022-10-22T13:59:47;96087.53;;;18.99
13219;BMP180;6674;49.152;11.918;2022-10-22T14:02:14;96099.28;;;18.66
13219;BMP180;6674;49.152;11.918;2022-10-22T14:04:41;96095.63;;;18.48
13219;BMP180;6674;49.152;11.918;2022-10-22T14:07:13;96079.41;;;18.21
13219;BMP180;6674;49.152;11.918;2022-10-22T14:09:41;96089.59;;;18.27
13219;BMP180;6674;49.152;11.918;2022-10-22T14:12:11;96080.44;;;18.25
13219;BMP180;6674;49.152;11.918;2022-10-22T14:14:38;96081.00;;;18.22
13219;BMP180;6674;49.152;11.918;2022-10-22T14:17:09;96086.72;;;18.14
13219;BMP180;6674;49.152;11.918;2022-10-22T14:19:37;96091.97;;;18.39
13219;BMP180;6674;49.152;11.918;2022-10-22T14:22:03;96088.31;;;18.64
13219;BMP180;6674;49.152;11.918;2022-10-22T14:24:31;96089.88;;;18.60
13219;BMP180;6674;49.152;11.918;2022-10-22T14:26:58;96096.69;;;18.76